Terminal Aerodrome Forecast
Issued by NWS Shreveport, LA

Current Version | Previous Version | Text Only | Print | Product List | Glossary On
Versions: 1 2 3 4 5 6 7 8 9 10 11 12
854
FTUS44 KSHV 072337
TAFTXK
TAF
KTXK 072337Z 0800/0824 28007KT P6SM SCT150
     FM080800 30011KT P6SM SCT150
     FM081500 31013G22KT P6SM SKC
     FM081700 30016G26KT P6SM SCT050=

USA.gov is the U.S. government's official web portal to all federal, state and local government web resources and services.